createdAt,value
2023-04-27T00:01:20.639Z,98640.31
2023-04-27T00:06:23.413Z,98642.75
2023-04-27T00:11:26.409Z,98650.56
2023-04-27T00:16:30.801Z,98650.00
2023-04-27T00:21:33.574Z,98643.84
2023-04-27T00:26:36.314Z,98644.78
2023-04-27T00:31:40.523Z,98640.97
2023-04-27T00:36:43.409Z,98638.50
2023-04-27T00:41:46.158Z,98647.91
2023-04-27T00:46:50.471Z,98642.22
2023-04-27T00:51:53.255Z,98633.81
2023-04-27T00:56:59.477Z,98633.38
2023-04-27T01:02:03.864Z,98641.94
2023-04-27T01:07:06.752Z,98640.25
2023-04-27T01:12:09.520Z,98638.53
2023-04-27T01:17:14.112Z,98647.31
2023-04-27T01:22:16.878Z,98656.84
2023-04-27T01:27:21.011Z,98652.84
2023-04-27T01:32:23.889Z,98657.88
2023-04-27T01:37:28.244Z,98652.59
2023-04-27T01:42:32.369Z,98656.84
2023-04-27T01:47:36.269Z,98650.97
2023-04-27T01:52:39.099Z,98647.09
2023-04-27T01:57:43.263Z,98651.34
2023-04-27T02:02:46.493Z,98651.25
2023-04-27T02:07:49.950Z,98658.91
2023-04-27T02:12:54.127Z,98653.44
2023-04-27T02:17:57.372Z,98658.72
2023-04-27T02:23:01.026Z,98662.41
2023-04-27T02:28:05.628Z,98667.56
2023-04-27T02:33:09.183Z,98672.19
2023-04-27T02:38:13.543Z,98682.94
2023-04-27T02:43:17.648Z,98672.44
2023-04-27T02:48:20.460Z,98672.56
2023-04-27T02:53:23.288Z,98665.78
2023-04-27T02:58:27.484Z,98660.22
2023-04-27T03:03:30.212Z,98669.94
2023-04-27T03:08:33.170Z,98666.44
2023-04-27T03:13:41.960Z,98659.41
2023-04-27T03:18:44.795Z,98648.44
2023-04-27T03:23:47.556Z,98645.94
2023-04-27T03:28:51.700Z,98650.13
2023-04-27T03:33:54.632Z,98648.56
2023-04-27T03:38:58.432Z,98646.13
2023-04-27T03:44:03.182Z,98648.31
2023-04-27T03:49:06.336Z,98666.22
2023-04-27T03:54:10.061Z,98664.97
2023-04-27T03:59:14.672Z,98671.25
2023-04-27T04:04:24.930Z,98670.31
2023-04-27T04:09:27.908Z,98669.94
2023-04-27T04:14:32.504Z,98671.56
2023-04-27T04:19:35.823Z,98678.38
2023-04-27T04:24:40.100Z,98676.34
2023-04-27T04:29:44.271Z,98674.13
2023-04-27T04:34:51.360Z,98678.06
2023-04-27T04:39:56.271Z,98682.84
2023-04-27T04:45:02.343Z,98686.69
2023-04-27T04:50:07.147Z,98687.13
2023-04-27T04:55:11.598Z,98702.25
2023-04-27T05:00:16.780Z,98697.16
2023-04-27T05:05:21.493Z,98699.03
2023-04-27T05:10:24.485Z,98700.13
2023-04-27T05:15:29.291Z,98703.50
2023-04-27T05:20:32.532Z,98700.16
2023-04-27T05:25:41.327Z,98701.16
2023-04-27T05:30:46.289Z,98706.41
2023-04-27T05:35:49.902Z,98715.97
2023-04-27T05:40:56.315Z,98718.75
2023-04-27T05:46:00.369Z,98722.06
2023-04-27T05:51:04.390Z,98719.97
2023-04-27T05:56:10.434Z,98724.84
2023-04-27T06:01:16.417Z,98727.31
2023-04-27T06:06:20.389Z,98736.91
2023-04-27T06:11:24.224Z,98745.03
2023-04-27T06:16:29.406Z,98748.31
2023-04-27T06:21:34.101Z,98756.34
2023-04-27T06:26:37.010Z,98749.59
2023-04-27T06:31:42.928Z,98749.75
2023-04-27T06:36:45.782Z,98744.72
2023-04-27T06:41:50.399Z,98750.72
2023-04-27T06:46:56.291Z,98752.50
2023-04-27T06:51:59.071Z,98761.69
2023-04-27T06:57:03.278Z,98756.91
2023-04-27T07:02:09.363Z,98753.78
2023-04-27T07:07:12.374Z,98740.03
2023-04-27T07:12:15.148Z,98741.03
2023-04-27T07:17:19.484Z,98738.59
2023-04-27T07:22:24.575Z,98743.06
2023-04-27T07:27:30.155Z,98742.63
2023-04-27T07:32:34.432Z,98750.59
2023-04-27T07:37:38.429Z,98748.03
2023-04-27T07:42:41.357Z,98742.66
2023-04-27T07:47:46.469Z,98737.53
2023-04-27T07:52:49.262Z,98741.28
2023-04-27T07:57:54.986Z,98729.94
2023-04-27T08:02:59.712Z,98731.03
2023-04-27T08:08:02.972Z,98728.09
2023-04-27T08:13:09.715Z,98733.50
2023-04-27T08:18:16.511Z,98728.91
2023-04-27T08:23:20.486Z,98727.47
2023-04-27T08:28:24.509Z,98731.75
2023-04-27T08:33:32.410Z,98736.09
2023-04-27T08:38:36.497Z,98729.63
2023-04-27T08:43:39.176Z,98728.03
2023-04-27T08:48:43.230Z,98727.00
2023-04-27T08:53:51.554Z,98725.59
2023-04-27T08:58:57.367Z,98718.59
2023-04-27T09:04:03.114Z,98716.09
2023-04-27T09:09:07.206Z,98715.22
2023-04-27T09:14:18.428Z,98712.44
2023-04-27T09:19:27.386Z,98710.97
2023-04-27T09:24:31.367Z,98701.91
2023-04-27T09:29:36.183Z,98708.56
2023-04-27T09:34:41.904Z,98708.94
2023-04-27T09:39:47.382Z,98714.34
2023-04-27T09:44:54.323Z,98701.28
2023-04-27T09:50:01.566Z,98687.91
2023-04-27T09:55:06.968Z,98690.91
2023-04-27T10:00:41.036Z,98686.25
2023-04-27T10:06:13.576Z,98687.31
2023-04-27T10:11:19.151Z,98676.84
2023-04-27T10:16:24.511Z,98674.97
2023-04-27T10:21:28.594Z,98676.13
2023-04-27T10:26:33.484Z,98674.63
2023-04-27T10:31:37.598Z,98675.94
2023-04-27T10:36:42.212Z,98675.16
2023-04-27T10:41:53.977Z,98675.56
2023-04-27T10:47:00.667Z,98664.34
2023-04-27T10:52:07.337Z,98662.84
2023-04-27T10:57:13.567Z,98653.09
2023-04-27T11:02:17.768Z,98653.88
2023-04-27T11:07:26.709Z,98646.69
2023-04-27T11:12:33.466Z,98639.25
2023-04-27T11:17:38.361Z,98630.69
2023-04-27T11:22:46.093Z,98630.13
2023-04-27T11:27:50.511Z,98627.84
2023-04-27T11:32:54.816Z,98611.63
2023-04-27T11:37:59.479Z,98612.88
2023-04-27T11:43:04.414Z,98614.81
2023-04-27T11:48:07.734Z,98620.97
2023-04-27T11:53:11.932Z,98617.28
2023-04-27T11:58:18.801Z,98613.16
2023-04-27T12:03:23.017Z,98605.81
2023-04-27T12:08:26.332Z,98603.16
2023-04-27T12:13:30.421Z,98596.97
2023-04-27T12:18:33.487Z,98587.56
2023-04-27T12:23:38.311Z,98575.53
2023-04-27T12:28:42.507Z,98574.75
2023-04-27T12:33:45.551Z,98574.81
2023-04-27T12:38:49.717Z,98573.06
2023-04-27T12:43:53.771Z,98573.00
2023-04-27T12:48:57.322Z,98568.84
2023-04-27T12:54:01.057Z,98564.41
2023-04-27T12:59:06.684Z,98552.53
2023-04-27T13:04:11.350Z,98551.06
2023-04-27T13:09:14.337Z,98558.75
2023-04-27T13:14:18.424Z,98555.16
2023-04-27T13:19:21.560Z,98552.22
2023-04-27T13:24:24.840Z,98545.97
2023-04-27T13:29:31.103Z,98540.78
2023-04-27T13:34:34.833Z,98552.28
2023-04-27T13:39:38.298Z,98551.63
2023-04-27T13:44:43.086Z,98543.41
2023-04-27T13:49:46.739Z,98541.44
2023-04-27T13:54:51.467Z,98544.78
2023-04-27T13:59:56.649Z,98543.72
2023-04-27T14:04:59.449Z,98534.19
2023-04-27T14:10:02.831Z,98525.00
2023-04-27T14:15:07.794Z,98536.94
2023-04-27T14:20:12.359Z,98533.91
2023-04-27T14:25:15.824Z,98529.16
2023-04-27T14:30:22.930Z,98526.53
2023-04-27T14:35:27.439Z,98526.44
2023-04-27T14:40:30.397Z,98532.75
2023-04-27T14:45:47.850Z,98528.34
2023-04-27T14:50:53.857Z,98528.97
2023-04-27T14:55:56.653Z,98522.31
2023-04-27T15:01:02.775Z,98513.59
2023-04-27T15:06:06.879Z,98515.59
2023-04-27T15:11:09.943Z,98508.13
2023-04-27T15:16:14.021Z,98491.78
2023-04-27T15:21:16.784Z,98475.88
2023-04-27T15:26:19.598Z,98481.63
2023-04-27T15:31:26.130Z,98474.50
2023-04-27T15:36:31.714Z,98480.31
2023-04-27T15:41:35.705Z,98467.34
2023-04-27T15:46:39.938Z,98473.31
2023-04-27T15:51:42.752Z,98460.03
2023-04-27T15:56:45.912Z,98462.81
2023-04-27T16:01:50.879Z,98455.56
2023-04-27T16:06:54.450Z,98455.66
2023-04-27T16:11:59.077Z,98459.03
2023-04-27T16:17:03.184Z,98448.44
2023-04-27T16:22:06.958Z,98441.34
2023-04-27T16:27:11.554Z,98449.53
2023-04-27T16:32:17.936Z,98449.22
2023-04-27T16:37:20.840Z,98443.88
2023-04-27T16:42:23.539Z,98433.63
2023-04-27T16:47:27.950Z,98442.44
2023-04-27T16:52:30.975Z,98435.69
2023-04-27T16:57:33.769Z,98429.09
2023-04-27T17:02:41.246Z,98418.53
2023-04-27T17:07:45.999Z,98420.75
2023-04-27T17:12:49.899Z,98417.94
2023-04-27T17:17:54.698Z,98429.19
2023-04-27T17:22:59.026Z,98414.53
2023-04-27T17:28:03.781Z,98417.75
2023-04-27T17:33:07.933Z,98417.09
2023-04-27T17:38:12.161Z,98415.41
2023-04-27T17:43:16.228Z,98405.47
2023-04-27T17:48:21.056Z,98405.91
2023-04-27T17:53:23.875Z,98401.19
2023-04-27T17:58:28.090Z,98402.09
2023-04-27T18:03:32.402Z,98398.41
2023-04-27T18:08:38.094Z,98391.78
2023-04-27T18:13:40.997Z,98384.50
2023-04-27T18:18:47.208Z,98388.75
2023-04-27T18:23:51.068Z,98392.38
2023-04-27T18:28:54.646Z,98403.16
2023-04-27T18:34:00.002Z,98404.84
2023-04-27T18:39:03.186Z,98414.31
2023-04-27T18:44:06.463Z,98409.38
2023-04-27T18:49:11.042Z,98413.94
2023-04-27T18:54:13.792Z,98398.53
2023-04-27T18:59:16.548Z,98404.31
2023-04-27T19:04:20.938Z,98412.25
2023-04-27T19:09:24.112Z,98400.09
2023-04-27T19:14:26.856Z,98412.56
2023-04-27T19:19:33.323Z,98412.63
2023-04-27T19:24:37.846Z,98425.69
2023-04-27T19:29:52.117Z,98418.72
2023-04-27T19:34:58.078Z,98416.91
2023-04-27T19:40:00.935Z,98416.50
2023-04-27T19:45:04.821Z,98420.78
2023-04-27T19:50:09.551Z,98407.09
2023-04-27T19:55:12.590Z,98403.53
2023-04-27T20:00:16.097Z,98417.34
2023-04-27T20:05:20.403Z,98417.94
2023-04-27T20:10:23.820Z,98419.81
2023-04-27T20:15:26.813Z,98409.53
2023-04-27T20:20:31.128Z,98420.38
2023-04-27T20:25:33.992Z,98408.84
2023-04-27T20:30:36.874Z,98404.75
2023-04-27T20:35:42.184Z,98406.75
2023-04-27T20:40:45.926Z,98403.78
2023-04-27T20:45:48.714Z,98395.50
2023-04-27T20:50:52.994Z,98392.97
2023-04-27T20:55:55.977Z,98387.22
2023-04-27T21:00:59.165Z,98376.13
2023-04-27T21:06:04.245Z,98376.41
2023-04-27T21:11:07.928Z,98376.84
2023-04-27T21:16:11.427Z,98374.47
2023-04-27T21:21:15.637Z,98372.06
2023-04-27T21:26:19.810Z,98368.69
2023-04-27T21:31:22.823Z,98367.00
2023-04-27T21:36:27.064Z,98370.38
2023-04-27T21:41:29.838Z,98358.00
2023-04-27T21:46:32.689Z,98354.34
2023-04-27T21:51:36.909Z,98346.91
2023-04-27T21:56:39.676Z,98345.66
2023-04-27T22:01:42.892Z,98338.22
2023-04-27T22:06:47.375Z,98329.34
2023-04-27T22:11:50.135Z,98332.88
2023-04-27T22:16:53.087Z,98334.69
2023-04-27T22:21:58.297Z,98327.81
2023-04-27T22:27:01.995Z,98319.22
2023-04-27T22:32:05.076Z,98317.41
2023-04-27T22:37:09.549Z,98314.88
2023-04-27T22:42:12.348Z,98310.63
2023-04-27T22:47:15.177Z,98319.94
2023-04-27T22:52:20.069Z,98310.22
2023-04-27T22:57:22.768Z,98315.72
2023-04-27T23:02:25.598Z,98312.50
2023-04-27T23:07:29.994Z,98309.28
2023-04-27T23:12:33.132Z,98310.78
2023-04-27T23:17:36.025Z,98308.81
2023-04-27T23:22:43.623Z,98306.59
2023-04-27T23:27:46.394Z,98307.41
2023-04-27T23:32:49.281Z,98306.59
2023-04-27T23:37:53.438Z,98280.88
2023-04-27T23:42:56.224Z,98272.56
2023-04-27T23:48:00.171Z,98264.69
2023-04-27T23:53:04.601Z,98267.34
2023-04-27T23:58:07.288Z,98244.19
